Portada
METAR-TAF:

METAR-TAF

Aeroports :

RAF

Holbeach, Anglaterra

latitud: 52-52N, longitud: 000-09E, altitud: 3 m

Observació

L'informe es va fer fa 16 hores i 0 minuts, a les 15:50 UTC
Vent 13 kt del Oest
Temperatura 7°C
Humitat 76%
Pressió 994 hPa
Visibilitat 10 km o més
Escasses núvols a una alçada de 2000 ft
Núvols disperses a una alçada de 3500 ft

METAR: EGYH 251550Z 26013KT 9999 FEW020 SCT035 07/03 Q0994 RMK BLU

Hora: 07:50 (07:50 UTC)


TAF: manca

Observacions i pronòstics meteorològics de més de 4000 aeroports (METAR i TAF).

Les estacions disponibles són els punts grocs i vermells al mapa.

Posi el ratolí al punt desitjat per veure el nom de l'estació.

Feu clic per veure les observacions i els pronòstics meteorològics.

Per canviar el mapa: feu clic els botons verds amb una creu de color negre per apropar; al botó verd amb un guió per allunyar la imatge; o en les fletxes verdes per a mapes adjacents.


METAR-TAF: